createdAt,value
2022-08-22T00:02:20.398Z,3.65
2022-08-22T00:03:10.964Z,2.05
2022-08-22T00:03:12.823Z,2.15
2022-08-22T00:03:15.072Z,2.55
2022-08-22T00:03:15.427Z,1.75
2022-08-22T00:05:03.544Z,2.15
2022-08-22T00:07:53.701Z,1.90
2022-08-22T00:10:46.137Z,2.28
2022-08-22T00:13:19.756Z,3.35
2022-08-22T00:15:54.296Z,2.80
2022-08-22T00:18:41.916Z,1.55
2022-08-22T00:21:22.087Z,6.15
2022-08-22T00:23:53.087Z,1.98
2022-08-22T00:26:34.003Z,1.73
2022-08-22T00:29:08.866Z,2.20
2022-08-22T00:31:40.515Z,2.40
2022-08-22T00:34:09.749Z,2.40
2022-08-22T00:37:04.572Z,2.85
2022-08-22T00:39:38.907Z,3.45
2022-08-22T00:42:14.925Z,2.35
2022-08-22T00:45:26.753Z,2.42
2022-08-22T00:48:17.328Z,5.70
2022-08-22T00:51:10.758Z,1.85
2022-08-22T00:53:52.378Z,4.07
2022-08-22T00:56:41.436Z,4.35
2022-08-22T00:59:32.802Z,4.60
2022-08-22T01:02:30.145Z,2.90
2022-08-22T01:05:10.213Z,2.50
2022-08-22T01:08:14.032Z,3.40
2022-08-22T01:10:45.581Z,2.42
2022-08-22T01:13:44.653Z,3.90
2022-08-22T01:16:32.919Z,3.83
2022-08-22T01:19:24.058Z,4.78
2022-08-22T01:22:05.573Z,5.13
2022-08-22T01:25:15.718Z,3.65
2022-08-22T01:30:36.560Z,2.28
2022-08-22T01:33:41.068Z,3.08
2022-08-22T01:36:13.459Z,3.60
2022-08-22T01:38:48.406Z,4.15
2022-08-22T01:41:37.074Z,3.50
2022-08-22T01:44:35.018Z,3.00
2022-08-22T01:47:11.978Z,1.95
2022-08-22T01:49:54.411Z,5.30
2022-08-22T01:52:41.558Z,2.05
2022-08-22T01:55:20.612Z,3.45
2022-08-22T01:57:51.984Z,2.92
2022-08-22T02:00:34.756Z,2.97
2022-08-22T02:03:23.109Z,2.70
2022-08-22T02:06:02.428Z,2.42
2022-08-22T02:08:39.422Z,2.67
2022-08-22T02:11:10.724Z,3.97
2022-08-22T02:14:16.378Z,2.33
2022-08-22T02:16:47.506Z,2.88
2022-08-22T02:19:14.030Z,3.25
2022-08-22T02:21:56.533Z,4.18
2022-08-22T02:24:25.986Z,4.38
2022-08-22T02:27:04.405Z,3.03
2022-08-22T02:29:41.307Z,3.28
2022-08-22T02:32:34.364Z,3.88
2022-08-22T02:35:12.998Z,3.97
2022-08-22T02:37:48.594Z,2.90
2022-08-22T02:40:27.474Z,3.10
2022-08-22T02:43:03.639Z,3.00
2022-08-22T02:46:00.870Z,1.92
2022-08-22T02:48:44.467Z,3.60
2022-08-22T02:51:30.169Z,2.70
2022-08-22T02:54:09.022Z,4.07
2022-08-22T02:56:41.913Z,2.70
2022-08-22T02:59:26.645Z,3.78
2022-08-22T03:01:54.910Z,2.30
2022-08-22T03:04:30.470Z,2.40
2022-08-22T03:07:03.126Z,2.70
2022-08-22T03:09:34.388Z,2.70
2022-08-22T03:12:16.608Z,2.33
2022-08-22T03:14:53.164Z,2.55
2022-08-22T03:17:28.081Z,2.70
2022-08-22T03:19:57.632Z,3.15
2022-08-22T03:22:36.351Z,2.10
2022-08-22T03:25:07.487Z,2.80
2022-08-22T03:27:41.723Z,2.42
2022-08-22T03:30:17.151Z,1.85
2022-08-22T03:32:55.697Z,5.80
2022-08-22T03:35:52.889Z,3.40
2022-08-22T03:38:24.062Z,2.80
2022-08-22T03:41:44.614Z,2.13
2022-08-22T03:44:39.381Z,4.05
2022-08-22T03:47:15.033Z,4.15
2022-08-22T03:49:47.521Z,4.20
2022-08-22T03:52:20.152Z,5.07
2022-08-22T03:55:25.798Z,4.00
2022-08-22T03:58:27.827Z,3.20
2022-08-22T04:01:13.602Z,5.22
2022-08-22T04:03:43.229Z,5.60
2022-08-22T04:06:18.719Z,2.30
2022-08-22T04:09:06.707Z,4.13
2022-08-22T04:12:02.636Z,2.08
2022-08-22T04:14:59.979Z,3.63
2022-08-22T04:17:45.724Z,5.90
2022-08-22T04:20:21.014Z,2.28
2022-08-22T04:23:24.552Z,2.13
2022-08-22T04:25:55.823Z,4.82
2022-08-22T04:28:43.705Z,6.20
2022-08-22T04:31:13.112Z,3.35
2022-08-22T04:33:46.314Z,3.05
2022-08-22T04:36:19.839Z,2.20
2022-08-22T04:39:18.436Z,4.28
2022-08-22T04:41:52.670Z,1.92
2022-08-22T04:44:38.483Z,6.22
2022-08-22T04:47:08.248Z,7.30
2022-08-22T04:49:43.563Z,2.63
2022-08-22T04:52:30.692Z,2.38
2022-08-22T04:55:09.776Z,3.28
2022-08-22T04:58:20.549Z,3.10
2022-08-22T05:01:04.508Z,3.47
2022-08-22T05:03:35.804Z,2.42
2022-08-22T05:06:05.215Z,3.35
2022-08-22T05:08:36.239Z,4.07
2022-08-22T05:11:09.040Z,3.53
2022-08-22T05:13:47.212Z,2.10
2022-08-22T05:16:19.112Z,2.80
2022-08-22T05:18:50.177Z,4.65
2022-08-22T05:21:18.498Z,4.60
2022-08-22T05:23:52.362Z,5.38
2022-08-22T05:26:20.833Z,2.17
2022-08-22T05:28:57.992Z,2.75
2022-08-22T05:31:32.357Z,5.45
2022-08-22T05:34:05.695Z,5.53
2022-08-22T05:36:38.545Z,2.50
2022-08-22T05:39:12.087Z,3.47
2022-08-22T05:41:40.044Z,3.55
2022-08-22T05:44:30.739Z,4.55
2022-08-22T05:47:09.360Z,3.03
2022-08-22T05:49:51.762Z,2.05
2022-08-22T05:52:36.543Z,4.20
2022-08-22T05:55:10.501Z,3.97
2022-08-22T05:57:41.710Z,2.13
2022-08-22T06:00:12.519Z,3.58
2022-08-22T06:02:59.311Z,4.25
2022-08-22T06:05:29.073Z,3.28
2022-08-22T06:08:11.632Z,3.75
2022-08-22T06:10:49.245Z,2.47
2022-08-22T06:13:24.721Z,5.43
2022-08-22T06:16:08.287Z,5.00
2022-08-22T06:18:37.963Z,3.53
2022-08-22T06:21:25.348Z,3.53
2022-08-22T06:23:59.988Z,3.00
2022-08-22T06:26:31.590Z,6.78
2022-08-22T06:29:01.616Z,6.70
2022-08-22T06:31:32.424Z,3.90
2022-08-22T06:34:09.399Z,3.25
2022-08-22T06:36:39.934Z,4.70
2022-08-22T06:39:31.185Z,3.80
2022-08-22T06:42:06.321Z,5.22
2022-08-22T06:44:37.622Z,5.05
2022-08-22T06:47:09.262Z,4.50
2022-08-22T06:49:39.204Z,6.40
2022-08-22T06:52:11.665Z,3.08
2022-08-22T06:54:43.805Z,4.18
2022-08-22T06:57:27.149Z,4.57
2022-08-22T06:59:55.638Z,6.00
2022-08-22T07:02:29.954Z,4.03
2022-08-22T07:04:56.959Z,5.05
2022-08-22T07:07:26.721Z,4.95
2022-08-22T07:09:56.249Z,6.20
2022-08-22T07:12:30.751Z,2.88
2022-08-22T07:15:37.248Z,5.88
2022-08-22T07:18:25.827Z,7.05
2022-08-22T07:20:59.441Z,5.75
2022-08-22T07:23:58.425Z,7.50
2022-08-22T07:26:30.924Z,4.35
2022-08-22T07:29:11.554Z,6.60
2022-08-22T07:31:49.035Z,3.92
2022-08-22T07:34:46.534Z,6.97
2022-08-22T07:37:25.890Z,6.03
2022-08-22T07:40:05.590Z,5.18
2022-08-22T07:42:43.841Z,7.35
2022-08-22T07:45:35.644Z,3.75
2022-08-22T07:48:11.027Z,5.60
2022-08-22T07:50:51.252Z,6.03
2022-08-22T07:53:26.341Z,7.88
2022-08-22T07:56:04.510Z,5.45
2022-08-22T07:58:36.782Z,5.80
2022-08-22T08:01:04.901Z,7.28
2022-08-22T08:03:31.692Z,7.40
2022-08-22T08:06:01.233Z,5.82
2022-08-22T08:08:42.893Z,7.35
2022-08-22T08:11:13.402Z,4.47
2022-08-22T08:13:47.010Z,5.90
2022-08-22T08:16:21.594Z,6.72
2022-08-22T08:18:50.356Z,6.72
2022-08-22T08:21:28.800Z,5.70
2022-08-22T08:23:56.906Z,5.70
2022-08-22T08:26:31.359Z,4.90
2022-08-22T08:28:58.847Z,5.28
2022-08-22T08:31:34.179Z,5.90
2022-08-22T08:34:11.463Z,6.45
2022-08-22T08:36:40.534Z,5.88
2022-08-22T08:39:25.368Z,5.75
2022-08-22T08:42:23.612Z,5.45
2022-08-22T08:45:22.382Z,5.18
2022-08-22T08:48:15.025Z,5.03
2022-08-22T08:50:53.637Z,5.38
2022-08-22T08:53:43.393Z,5.30
2022-08-22T08:56:21.091Z,5.13
2022-08-22T08:59:10.607Z,3.30
2022-08-22T09:02:01.024Z,4.28
2022-08-22T09:05:04.955Z,3.83
2022-08-22T09:07:54.329Z,3.72
2022-08-22T09:10:41.799Z,3.25
2022-08-22T09:13:29.064Z,3.78
2022-08-22T09:16:25.898Z,3.95
2022-08-22T09:19:18.642Z,4.55
2022-08-22T09:22:30.012Z,4.38
2022-08-22T09:25:23.386Z,3.30
2022-08-22T09:28:11.746Z,2.47
2022-08-22T09:31:17.002Z,3.72
2022-08-22T09:34:32.590Z,2.83
2022-08-22T09:37:09.715Z,2.08
2022-08-22T09:39:59.771Z,2.85
2022-08-22T09:42:46.500Z,2.50
2022-08-22T09:45:22.677Z,2.42
2022-08-22T09:48:02.257Z,2.45
2022-08-22T09:51:04.849Z,2.50
2022-08-22T09:54:13.878Z,2.33
2022-08-22T09:56:52.384Z,2.28
2022-08-22T09:59:23.363Z,2.00
2022-08-22T10:02:15.481Z,2.40
2022-08-22T10:04:51.458Z,3.00
2022-08-22T10:07:37.958Z,2.83
2022-08-22T10:10:39.912Z,2.10
2022-08-22T10:13:36.524Z,2.10
2022-08-22T10:16:25.159Z,2.03
2022-08-22T10:19:18.068Z,1.98
2022-08-22T10:22:05.252Z,2.28
2022-08-22T10:24:36.094Z,2.15
2022-08-22T10:27:18.266Z,2.03
2022-08-22T10:30:09.679Z,2.47
2022-08-22T10:32:43.629Z,2.10
2022-08-22T10:35:34.305Z,2.00
2022-08-22T10:38:05.472Z,2.22
2022-08-22T10:40:47.654Z,2.38
2022-08-22T10:43:56.529Z,2.45
2022-08-22T10:46:38.915Z,1.98
2022-08-22T10:49:19.922Z,1.80
2022-08-22T10:52:00.048Z,1.92
2022-08-22T10:54:46.044Z,1.80
2022-08-22T10:57:39.816Z,1.90
2022-08-22T11:00:15.729Z,2.00
2022-08-22T11:02:53.548Z,1.90
2022-08-22T11:05:30.309Z,1.80
2022-08-22T11:08:10.202Z,1.98
2022-08-22T11:10:39.785Z,1.70
2022-08-22T11:13:21.139Z,2.05
2022-08-22T11:16:00.410Z,2.10
2022-08-22T11:19:02.722Z,1.83
2022-08-22T11:21:43.459Z,1.58
2022-08-22T11:24:34.911Z,1.95
2022-08-22T11:27:21.850Z,1.83
2022-08-22T11:30:18.181Z,2.05
2022-08-22T11:33:10.922Z,2.10
2022-08-22T11:35:56.333Z,1.60
2022-08-22T11:38:56.778Z,1.95
2022-08-22T11:41:45.104Z,1.90
2022-08-22T11:44:50.387Z,1.75
2022-08-22T11:47:26.574Z,2.20
2022-08-22T11:50:21.572Z,2.08
2022-08-22T11:52:56.303Z,1.70
2022-08-22T11:55:49.008Z,1.50
2022-08-22T11:58:30.414Z,1.85
2022-08-22T12:01:05.481Z,1.70
2022-08-22T12:03:58.929Z,1.60
2022-08-22T12:06:25.467Z,1.52
2022-08-22T12:09:27.685Z,1.70
2022-08-22T12:11:59.452Z,1.65
2022-08-22T12:14:38.233Z,1.42
2022-08-22T12:17:55.013Z,1.92
2022-08-22T12:20:45.493Z,1.65
2022-08-22T12:23:21.116Z,1.83
2022-08-22T12:26:29.100Z,1.75
2022-08-22T12:28:56.064Z,1.70
2022-08-22T12:31:39.876Z,1.60
2022-08-22T12:34:19.463Z,1.30
2022-08-22T12:36:57.661Z,1.77
2022-08-22T12:39:48.755Z,1.70
2022-08-22T12:42:21.281Z,1.63
2022-08-22T12:45:29.669Z,1.58
2022-08-22T12:48:08.398Z,1.60
2022-08-22T12:50:58.162Z,1.65
2022-08-22T12:53:49.461Z,1.67
2022-08-22T12:56:38.098Z,1.40
2022-08-22T12:59:26.518Z,1.70
2022-08-22T13:01:56.750Z,1.60
2022-08-22T13:04:33.103Z,1.60
2022-08-22T13:07:05.556Z,1.77
2022-08-22T13:09:38.074Z,2.05
2022-08-22T13:12:19.868Z,1.70
2022-08-22T13:14:51.213Z,1.60
2022-08-22T13:17:23.848Z,1.50
2022-08-22T13:20:00.604Z,1.70
2022-08-22T13:22:30.627Z,1.70
2022-08-22T13:25:26.121Z,1.70
2022-08-22T13:28:04.259Z,1.48
2022-08-22T13:30:37.693Z,1.50
2022-08-22T13:33:26.721Z,1.70
2022-08-22T13:35:56.758Z,1.50
2022-08-22T13:38:27.711Z,1.52
2022-08-22T13:40:59.224Z,1.35
2022-08-22T13:43:30.419Z,1.30
2022-08-22T13:46:02.125Z,1.73
2022-08-22T13:48:50.350Z,1.73
2022-08-22T13:51:35.849Z,1.50
2022-08-22T13:54:12.063Z,1.60
2022-08-22T13:56:47.815Z,1.48
2022-08-22T13:59:50.345Z,1.50
2022-08-22T14:02:24.078Z,1.48
2022-08-22T14:05:05.085Z,1.67
2022-08-22T14:07:38.904Z,1.55
2022-08-22T14:10:14.701Z,1.40
2022-08-22T14:12:57.124Z,1.60
2022-08-22T14:15:45.509Z,1.48
2022-08-22T14:18:30.093Z,1.52
2022-08-22T14:21:28.649Z,1.60
2022-08-22T14:24:10.242Z,1.90
2022-08-22T14:26:51.831Z,1.48
2022-08-22T14:29:21.254Z,1.60
2022-08-22T14:32:04.673Z,1.63
2022-08-22T14:34:38.854Z,1.33
2022-08-22T14:37:20.234Z,1.50
2022-08-22T14:39:58.522Z,1.50
2022-08-22T14:42:30.432Z,1.60
2022-08-22T14:45:18.633Z,1.52
2022-08-22T14:48:29.484Z,1.42
2022-08-22T14:50:57.961Z,1.60
2022-08-22T14:53:31.111Z,1.52
2022-08-22T14:56:10.860Z,1.50
2022-08-22T14:58:49.797Z,1.52
2022-08-22T15:01:23.763Z,1.67
2022-08-22T15:03:55.831Z,1.30
2022-08-22T15:06:48.012Z,1.60
2022-08-22T15:09:24.996Z,1.40
2022-08-22T15:11:53.335Z,1.45
2022-08-22T15:14:26.849Z,1.38
2022-08-22T15:17:01.053Z,1.63
2022-08-22T15:19:41.403Z,1.40
2022-08-22T15:22:18.892Z,1.60
2022-08-22T15:24:45.990Z,1.40
2022-08-22T15:27:19.130Z,1.45
2022-08-22T15:29:58.618Z,1.60
2022-08-22T15:32:31.558Z,1.52
2022-08-22T15:35:12.801Z,1.55
2022-08-22T15:38:04.419Z,1.60
2022-08-22T15:40:41.331Z,1.70
2022-08-22T15:43:28.910Z,1.40
2022-08-22T15:46:23.101Z,1.45
2022-08-22T15:49:12.927Z,1.65
2022-08-22T15:51:52.137Z,1.40
2022-08-22T15:54:25.200Z,1.40
2022-08-22T15:56:52.013Z,1.33
2022-08-22T15:59:48.161Z,1.40
2022-08-22T16:02:26.077Z,1.50
2022-08-22T16:05:22.941Z,1.70
2022-08-22T16:07:57.035Z,1.50
2022-08-22T16:10:23.507Z,1.65
2022-08-22T16:13:27.493Z,1.60
2022-08-22T16:16:01.751Z,1.75
2022-08-22T16:18:34.628Z,1.63
2022-08-22T16:21:18.223Z,1.40
2022-08-22T16:23:51.214Z,1.60
2022-08-22T16:26:20.366Z,1.50
2022-08-22T16:29:08.466Z,1.55
2022-08-22T16:31:44.178Z,1.45
2022-08-22T16:34:16.931Z,1.58
2022-08-22T16:37:09.209Z,1.60
2022-08-22T16:39:38.870Z,1.35
2022-08-22T16:42:14.978Z,1.50
2022-08-22T16:44:56.802Z,1.50
2022-08-22T16:47:41.778Z,1.65
2022-08-22T16:50:23.745Z,1.55
2022-08-22T16:53:10.581Z,1.38
2022-08-22T16:55:47.627Z,1.30
2022-08-22T16:58:56.920Z,1.50
2022-08-22T17:01:33.576Z,1.60
2022-08-22T17:04:22.792Z,1.40
2022-08-22T17:07:38.099Z,1.55
2022-08-22T17:10:37.920Z,1.60
2022-08-22T17:13:22.898Z,1.50
2022-08-22T17:16:23.414Z,1.50
2022-08-22T17:19:16.234Z,1.75
2022-08-22T17:21:56.714Z,1.60
2022-08-22T17:24:53.868Z,1.40
2022-08-22T17:27:35.335Z,1.60
2022-08-22T17:30:11.903Z,1.83
2022-08-22T17:33:06.892Z,1.45
2022-08-22T17:36:26.289Z,1.63
2022-08-22T17:39:32.451Z,2.53
2022-08-22T17:42:41.293Z,1.70
2022-08-22T17:45:28.047Z,1.77
2022-08-22T17:48:43.580Z,1.85
2022-08-22T17:51:26.534Z,1.75
2022-08-22T17:54:01.648Z,1.95
2022-08-22T17:57:05.792Z,1.80
2022-08-22T17:59:42.705Z,2.03
2022-08-22T18:02:13.732Z,1.70
2022-08-22T18:05:08.011Z,2.00
2022-08-22T18:07:58.352Z,1.80
2022-08-22T18:10:38.786Z,2.10
2022-08-22T18:13:26.454Z,1.80
2022-08-22T18:15:58.958Z,1.80
2022-08-22T18:18:42.565Z,2.00
2022-08-22T18:21:25.109Z,1.73
2022-08-22T18:24:01.190Z,1.77
2022-08-22T18:26:59.899Z,2.30
2022-08-22T18:29:51.651Z,1.75
2022-08-22T18:32:29.433Z,1.67
2022-08-22T18:35:11.401Z,1.85
2022-08-22T18:38:19.335Z,1.75
2022-08-22T18:40:56.612Z,1.90
2022-08-22T18:43:58.357Z,1.75
2022-08-22T18:46:34.133Z,1.65
2022-08-22T18:49:16.137Z,2.03
2022-08-22T18:51:45.364Z,1.67
2022-08-22T18:54:11.982Z,1.90
2022-08-22T18:56:52.347Z,1.92
2022-08-22T18:59:56.595Z,1.58
2022-08-22T19:02:55.718Z,1.85
2022-08-22T19:05:45.229Z,2.10
2022-08-22T19:08:44.318Z,2.08
2022-08-22T19:11:19.396Z,1.95
2022-08-22T19:14:02.111Z,1.95
2022-08-22T19:16:43.645Z,2.00
2022-08-22T19:20:00.328Z,1.90
2022-08-22T19:22:30.773Z,1.85
2022-08-22T19:25:09.164Z,2.00
2022-08-22T19:28:12.940Z,1.80
2022-08-22T19:30:45.509Z,2.28
2022-08-22T19:33:34.588Z,2.10
2022-08-22T19:36:13.074Z,2.20
2022-08-22T19:38:53.240Z,2.38
2022-08-22T19:41:43.835Z,2.17
2022-08-22T19:44:31.416Z,2.17
2022-08-22T19:47:19.041Z,2.25
2022-08-22T19:49:56.146Z,2.00
2022-08-22T19:52:46.958Z,2.25
2022-08-22T19:55:13.451Z,2.53
2022-08-22T19:57:52.235Z,2.17
2022-08-22T20:00:24.054Z,2.40
2022-08-22T20:03:10.651Z,2.40
2022-08-22T20:06:00.104Z,2.38
2022-08-22T20:08:47.513Z,2.15
2022-08-22T20:11:43.635Z,2.08
2022-08-22T20:14:11.600Z,2.22
2022-08-22T20:17:16.075Z,2.42
2022-08-22T20:22:38.948Z,2.35
2022-08-22T20:25:33.391Z,2.30
2022-08-22T20:28:05.789Z,2.50
2022-08-22T20:30:41.087Z,2.20
2022-08-22T20:33:12.826Z,2.60
2022-08-22T20:35:55.778Z,2.80
2022-08-22T20:38:27.154Z,2.65
2022-08-22T20:41:11.111Z,2.90
2022-08-22T20:43:45.457Z,2.72
2022-08-22T20:46:53.666Z,2.38
2022-08-22T20:49:23.965Z,2.53
2022-08-22T20:52:03.450Z,2.75
2022-08-22T20:54:33.984Z,2.80
2022-08-22T20:57:12.406Z,2.50
2022-08-22T20:59:41.867Z,2.85
2022-08-22T21:02:18.670Z,2.78
2022-08-22T21:05:03.398Z,2.28
2022-08-22T21:07:34.487Z,2.60
2022-08-22T21:10:42.296Z,2.30
2022-08-22T21:13:17.331Z,2.80
2022-08-22T21:15:49.175Z,2.80
2022-08-22T21:18:30.565Z,2.83
2022-08-22T21:21:18.041Z,3.30
2022-08-22T21:23:50.345Z,2.65
2022-08-22T21:26:22.357Z,3.28
2022-08-22T21:28:48.886Z,2.60
2022-08-22T21:31:20.681Z,3.10
2022-08-22T21:33:50.183Z,2.50
2022-08-22T21:36:20.903Z,2.60
2022-08-22T21:39:01.050Z,2.60
2022-08-22T21:41:47.826Z,3.20
2022-08-22T21:44:30.532Z,2.97
2022-08-22T21:47:14.586Z,3.03
2022-08-22T21:50:21.019Z,3.05
2022-08-22T21:52:53.611Z,3.05
2022-08-22T21:55:34.513Z,3.08
2022-08-22T21:58:34.928Z,3.05
2022-08-22T22:01:27.350Z,2.72
2022-08-22T22:03:54.753Z,2.67
2022-08-22T22:06:21.319Z,2.75
2022-08-22T22:08:49.040Z,3.03
2022-08-22T22:11:16.480Z,2.60
2022-08-22T22:13:43.606Z,3.30
2022-08-22T22:16:14.469Z,2.70
2022-08-22T22:18:41.329Z,3.05
2022-08-22T22:21:08.948Z,3.50
2022-08-22T22:23:35.595Z,2.38
2022-08-22T22:26:04.737Z,2.70
2022-08-22T22:28:36.557Z,3.03
2022-08-22T22:31:03.670Z,2.72
2022-08-22T22:33:34.438Z,2.83
2022-08-22T22:36:14.703Z,2.80
2022-08-22T22:38:41.767Z,3.40
2022-08-22T22:41:08.609Z,3.35
2022-08-22T22:43:35.232Z,2.47
2022-08-22T22:46:01.896Z,3.28
2022-08-22T22:48:29.226Z,2.80
2022-08-22T22:50:56.096Z,3.10
2022-08-22T22:53:33.699Z,3.38
2022-08-22T22:56:06.342Z,2.88
2022-08-22T22:58:35.558Z,3.58
2022-08-22T23:01:12.725Z,3.28
2022-08-22T23:03:39.727Z,3.85
2022-08-22T23:06:16.313Z,2.85
2022-08-22T23:08:43.106Z,2.97
2022-08-22T23:11:24.785Z,3.40
2022-08-22T23:13:51.460Z,3.20
2022-08-22T23:16:23.284Z,3.75
2022-08-22T23:18:49.892Z,3.17
2022-08-22T23:21:20.619Z,3.45
2022-08-22T23:23:48.854Z,3.30
2022-08-22T23:26:16.927Z,4.35
2022-08-22T23:28:43.735Z,3.22
2022-08-22T23:31:31.992Z,3.42
2022-08-22T23:34:04.927Z,3.10
2022-08-22T23:36:31.833Z,3.38
2022-08-22T23:38:58.503Z,3.20
2022-08-22T23:41:25.204Z,3.40
2022-08-22T23:43:54.085Z,2.80
2022-08-22T23:46:22.996Z,3.53
2022-08-22T23:48:49.700Z,3.35
2022-08-22T23:51:23.076Z,4.60
2022-08-22T23:53:49.883Z,4.82
2022-08-22T23:56:25.451Z,4.88
2022-08-22T23:58:53.246Z,3.78
